KFET/FET METAR and TAF weather

Enter ICAO airport designator
Station Type Date Time Source
KFET METAR 2019/10/21 04:35 UTC NOAA

KFET 210435Z AUTO 13007KT 10SM CLR 12/10 A2952 RMK AO2 LTG DSNT SE T01180096


Station Type Date Time Source
KFET Decoded METAR 2019/10/21 04:35 UTC NOAA

Fremont Municipal Airport, NE, United States (KFET) 41-27N 096-31W
Oct 21, 2019 - 12:35 AM EDT / 2019.10.21 0435 UTC
Wind: from the SE (130 degrees) at 8 MPH (7 KT):0
Visibility: 10 mile(s):0
Sky conditions: clear
Weather: Lightning observed
Temperature: 53.2 F (11.8 C)
Dew Point: 49.3 F (9.6 C)
Relative Humidity: 86%
Pressure (altimeter): 29.52 in. Hg (999 hPa)
ob: KFET 210435Z AUTO 13007KT 10SM CLR 12/10 A2952 RMK AO2 LTG DSNT SE T01180096
cycle: 4

Station Type Date Time Source
KFET TAF UTC NOAA

Error!

Example: see airport list